Airport View

Enter AWOS ICAO identifier for current METAR.

ex. KFNL

KVDI 040515Z AUTO 00000KT 10SM CLR 22/20 A2994 RMK AO2

4 Aug 2020 05:33

Frequency: 119.925

Phone: 912-538-0219

Other Area AWOS: KAZE - KSBO - KCWV - KBHC

TAF AMD KSAV 040408Z 0404/0424 29006KT P6SM SCT025 BKN250 FM040600 28004KT P6SM SCT040 FM041900 16010KT P6SM SCT040